Time;durP1;ratioP1;P1;durP2;ratioP2;P2;SDS_P1;SDS_P2;PMS_P1;PMS_P2;Temp;Humidity;BMP_temperature;BMP_pressure;BME280_temperature;BME280_humidity;BME280_pressure;Samples;Min_cycle;Max_cycle;Signal;HPM_P1;HPM_P2
2023/01/04 00:01:12;;;;;;;9.03;3.80;;;;;;;4.00;89.61;100548.52;1406607;100;21103;-84
2023/01/04 00:03:38;;;;;;;9.43;3.72;;;;;;;4.00;89.52;100554.53;1408407;100;21092;-85
2023/01/04 00:06:06;;;;;;;7.20;4.20;;;;;;;4.01;89.70;100551.55;1432829;96;21124;-84
2023/01/04 00:08:36;;;;;;;8.75;4.87;;;;;;;4.04;89.59;100547.64;1438332;96;21057;-84
2023/01/04 00:11:17;;;;;;;9.75;3.47;;;;;;;4.03;89.51;100547.20;1569528;87;21027;-84
2023/01/04 00:13:44;;;;;;;7.92;3.95;;;;;;;3.99;89.36;100541.20;1599949;88;21018;-84
2023/01/04 00:16:23;;;;;;;;;;;;;;;3.94;89.34;100544.69;1600652;87;21008;-84
2023/01/04 00:18:53;;;;;;;9.00;3.35;;;;;;;3.84;88.99;100546.90;1597534;87;20166;-84
2023/01/04 00:21:29;;;;;;;7.00;3.10;;;;;;;3.66;88.91;100540.98;1601538;87;21021;-84
2023/01/04 00:23:58;;;;;;;8.73;3.62;;;;;;;3.55;88.92;100536.31;1597100;87;21001;-84
2023/01/04 00:26:28;;;;;;;8.63;3.10;;;;;;;3.49;89.12;100541.08;1599900;88;21621;-84
2023/01/04 00:28:58;;;;;;;6.92;2.75;;;;;;;3.48;89.23;100544.98;1599577;87;21050;-85
2023/01/04 00:31:26;;;;;;;8.18;2.75;;;;;;;3.44;89.07;100545.84;1597699;88;21494;-84
2023/01/04 00:33:59;;;;;;;6.67;3.27;;;;;;;3.34;88.83;100542.47;1596816;87;20985;-84
2023/01/04 00:36:26;;;;;;;8.33;3.08;;;;;;;3.18;88.58;100545.53;1598408;87;21029;-84
2023/01/04 00:39:09;;;;;;;6.50;2.85;;;;;;;3.05;88.52;100537.40;1598853;87;21011;-84
2023/01/04 00:41:50;;;;;;;8.10;2.90;;;;;;;2.90;88.65;100541.75;1603692;87;20993;-84
2023/01/04 00:44:20;;;;;;;9.25;2.98;;;;;;;2.82;88.74;100531.87;1590680;89;21008;-84
2023/01/04 00:46:45;;;;;;;7.90;2.90;;;;;;;2.73;88.70;100529.33;1591492;88;21002;-84
2023/01/04 00:49:12;;;;;;;9.43;2.62;;;;;;;2.67;88.73;100525.48;1587063;89;21025;-84
2023/01/04 00:51:40;;;;;;;5.93;2.63;;;;;;;2.58;88.62;100529.38;1589053;88;21869;-84
2023/01/04 00:54:14;;;;;;;5.58;2.50;;;;;;;2.50;88.77;100528.53;1585086;88;21077;-84
2023/01/04 00:56:43;;;;;;;7.37;2.92;;;;;;;2.43;88.72;100530.23;1585249;88;21128;-83
2023/01/04 00:59:12;;;;;;;8.40;2.20;;;;;;;2.42;89.04;100526.81;1585450;88;21546;-84
2023/01/04 01:01:39;;;;;;;10.50;2.92;;;;;;;2.49;89.22;100536.67;1586339;88;21062;-84
2023/01/04 01:04:06;;;;;;;5.92;3.10;;;;;;;2.55;89.36;100537.09;1585101;88;20953;-84
2023/01/04 01:06:33;;;;;;;7.92;3.17;;;;;;;2.62;89.37;100539.66;1563043;90;21097;-85
2023/01/04 01:09:01;;;;;;;10.65;3.70;;;;;;;2.68;89.39;100538.80;1555037;90;21033;-85
2023/01/04 01:11:28;;;;;;;7.30;2.83;;;;;;;2.70;89.25;100537.08;1585475;88;21017;-85
2023/01/04 01:13:57;;;;;;;3.87;2.45;;;;;;;2.69;89.25;100525.06;1654511;81;21135;-85
2023/01/04 01:24:45;;;;;;;;;;;;;;;;;;;;;
2023/01/04 01:27:19;;;;;;;8.10;2.22;;;;;;;2.48;88.83;100507.05;1658169;85;21662;-84
2023/01/04 01:29:45;;;;;;;8.73;4.00;;;;;;;2.34;88.87;100507.91;1661240;85;21023;-84
2023/01/04 01:32:13;;;;;;;4.83;2.80;;;;;;;2.23;88.66;100498.05;1658371;85;21070;-84
2023/01/04 01:34:42;;;;;;;8.03;3.80;;;;;;;2.14;88.76;100499.35;1659406;84;21513;-84
2023/01/04 01:37:12;;;;;;;7.70;3.33;;;;;;;2.06;88.75;100503.64;1661025;85;20994;-84
2023/01/04 01:39:37;;;;;;;9.10;3.55;;;;;;;1.96;88.67;100495.92;1658658;85;21478;-83
2023/01/04 01:42:04;;;;;;;6.62;3.42;;;;;;;1.86;88.73;100501.92;1659884;85;21684;-84
2023/01/04 01:44:53;;;;;;;6.60;2.67;;;;;;;1.76;88.72;100498.49;1662573;85;21006;-84
2023/01/04 01:47:35;;;;;;;10.80;3.70;;;;;;;1.66;88.66;100498.04;1661725;85;21058;-84
2023/01/04 01:50:08;;;;;;;7.62;3.12;;;;;;;1.55;88.76;100491.58;1655456;85;21435;-84
2023/01/04 01:52:34;;;;;;;6.90;3.05;;;;;;;1.47;88.74;100488.13;1659274;85;21585;-85
2023/01/04 01:55:22;;;;;;;;;;;;;;;;;;;;;
2023/01/04 02:01:25;;;;;;;5.53;2.80;;;;;;;1.22;88.74;100488.93;1558911;89;21021;-83
2023/01/04 02:03:58;;;;;;;9.65;3.60;;;;;;;1.14;88.76;100482.90;1461145;96;21065;-83
2023/01/04 02:06:34;;;;;;;6.15;2.92;;;;;;;1.05;88.88;100474.30;1489065;94;21032;-83
2023/01/04 02:09:29;;;;;;;4.62;2.77;;;;;;;1.02;88.89;100478.14;1405653;99;21057;-83
2023/01/04 02:12:15;;;;;;;9.08;3.33;;;;;;;0.97;88.89;100469.55;1436788;97;21111;-83
2023/01/04 02:17:57;;;;;;;5.50;2.70;;;;;;;0.89;88.89;100466.08;1317351;106;21207;-83
2023/01/04 02:21:30;;;;;;;;;;;;;;;;;;;;;
2023/01/04 02:58:26;;;;;;;;;;;;;;;;;;;;;
2023/01/04 03:12:47;;;;;;;6.40;2.85;;;;;;;0.53;89.46;100421.36;1122450;126;21276;-81
2023/01/04 03:15:40;;;;;;;6.92;3.22;;;;;;;0.51;89.48;100408.96;1166052;119;21210;-81
2023/01/04 03:22:02;;;;;;;;;;;;;;;;;;;;;
2023/01/04 03:51:04;;;;;;;7.67;2.45;;;;;;;0.43;89.95;100369.52;1199411;117;21295;-81
2023/01/04 03:53:39;;;;;;;4.87;2.80;;;;;;;0.48;90.10;100360.53;1196289;116;21167;-81
2023/01/04 03:56:10;;;;;;;5.35;2.60;;;;;;;0.53;90.11;100351.98;1207424;116;21131;-81
2023/01/04 03:58:42;;;;;;;5.35;2.80;;;;;;;0.59;90.16;100340.47;1230213;111;21678;-82
2023/01/04 04:01:12;;;;;;;5.47;2.67;;;;;;;0.64;90.26;100343.92;1272512;107;21123;-81
2023/01/04 04:09:15;;;;;;;9.05;3.80;;;;;;;0.84;90.43;100322.52;1399093;100;21619;-81
2023/01/04 04:11:45;;;;;;;7.37;3.47;;;;;;;0.92;90.48;100319.97;1385870;100;21092;-81
2023/01/04 04:14:13;;;;;;;5.75;3.50;;;;;;;0.96;90.47;100314.84;1397427;100;21575;-82
2023/01/04 04:16:41;;;;;;;4.30;2.98;;;;;;;1.00;90.42;100311.41;1389834;101;21668;-82
2023/01/04 04:19:10;;;;;;;6.08;3.42;;;;;;;1.03;90.44;100306.26;1391391;101;21571;-82
2023/01/04 04:21:57;;;;;;;6.87;3.17;;;;;;;1.05;90.42;100291.70;1390870;100;21091;-81
2023/01/04 04:24:25;;;;;;;7.47;3.15;;;;;;;1.09;90.37;100293.43;1409379;98;21078;-82
2023/01/04 04:26:53;;;;;;;9.60;3.52;;;;;;;1.07;90.40;100292.56;1454617;96;21038;-82
2023/01/04 04:29:21;;;;;;;6.72;3.30;;;;;;;1.09;90.41;100282.27;1473581;95;21037;-82
2023/01/04 04:31:53;;;;;;;4.97;3.20;;;;;;;1.08;90.31;100275.41;1473012;95;21578;-82
2023/01/04 04:34:19;;;;;;;5.10;3.00;;;;;;;1.11;90.45;100282.69;1475772;95;21047;-82
2023/01/04 04:39:43;;;;;;;8.08;3.60;;;;;;;1.17;90.46;100270.26;1473630;94;21098;-82
2023/01/04 04:42:32;;;;;;;8.45;3.02;;;;;;;1.17;90.41;100269.41;1467887;95;21044;-82
2023/01/04 04:44:59;;;;;;;6.40;2.67;;;;;;;1.17;90.47;100261.69;1460496;95;21564;-82
2023/01/04 04:47:25;;;;;;;6.50;3.07;;;;;;;1.21;90.65;100255.70;1459480;95;21100;-82
2023/01/04 04:49:52;;;;;;;7.50;3.05;;;;;;;1.26;90.68;100246.24;1460779;96;21109;-81
2023/01/04 04:52:18;;;;;;;8.53;4.22;;;;;;;1.34;90.83;100249.66;1466079;97;21067;-81
2023/01/04 04:54:45;;;;;;;8.68;4.12;;;;;;;1.41;90.86;100259.54;1464130;96;21061;-82
2023/01/04 04:57:12;;;;;;;7.45;3.30;;;;;;;1.49;90.97;100251.38;1462642;96;21041;-82
2023/01/04 04:59:40;;;;;;;8.73;3.60;;;;;;;1.52;90.76;100244.50;1473786;94;21093;-82
2023/01/04 05:02:08;;;;;;;6.87;3.50;;;;;;;1.55;90.79;100243.20;1458499;95;21110;-82
2023/01/04 05:04:39;;;;;;;8.35;4.28;;;;;;;1.62;90.83;100241.89;1434017;97;21073;-81
2023/01/04 05:07:03;;;;;;;7.33;3.62;;;;;;;1.66;90.79;100238.47;1482296;94;21608;-81
2023/01/04 05:09:30;;;;;;;6.45;3.47;;;;;;;1.72;90.83;100233.30;1486783;94;21042;-81
2023/01/04 05:14:43;;;;;;;6.60;3.02;;;;;;;1.84;90.98;100229.82;1485968;95;21076;-82
2023/01/04 05:17:10;;;;;;;7.70;3.50;;;;;;;1.89;90.84;100230.23;1450527;96;21099;-82
2023/01/04 05:19:36;;;;;;;8.13;3.67;;;;;;;1.90;90.86;100222.92;1425673;100;21519;-82
2023/01/04 05:22:05;;;;;;;6.37;3.12;;;;;;;1.90;90.59;100228.06;1473275;95;21531;-82
2023/01/04 05:24:31;;;;;;;6.70;3.22;;;;;;;1.90;90.73;100225.49;1470360;96;21158;-82
2023/01/04 05:27:01;;;;;;;4.67;3.15;;;;;;;1.96;90.95;100213.91;1491452;94;21549;-82
2023/01/04 05:32:12;;;;;;;5.78;2.87;;;;;;;2.01;90.78;100194.11;1488863;94;21155;-82
2023/01/04 05:34:39;;;;;;;7.83;4.05;;;;;;;2.10;91.00;100183.34;1484794;95;21513;-83
2023/01/04 05:37:05;;;;;;;5.65;3.17;;;;;;;2.13;90.93;100177.76;1491171;95;21587;-82
2023/01/04 05:39:32;;;;;;;7.22;3.45;;;;;;;2.14;90.72;100174.75;1493779;94;21097;-82
2023/01/04 05:44:43;;;;;;;8.78;3.77;;;;;;;2.11;90.75;100159.31;1491337;95;21073;-82
2023/01/04 05:47:10;;;;;;;8.00;3.72;;;;;;;2.12;90.77;100167.02;1491317;94;21103;-82
2023/01/04 05:49:36;;;;;;;7.78;4.40;;;;;;;2.14;90.77;100158.00;1490633;94;21156;-82
2023/01/04 05:52:03;;;;;;;7.25;3.30;;;;;;;2.19;90.83;100153.69;1491464;93;21641;-82
2023/01/04 05:54:29;;;;;;;8.70;4.30;;;;;;;2.22;90.82;100152.37;1490174;95;21065;-82
2023/01/04 05:56:56;;;;;;;8.00;4.27;;;;;;;2.23;90.79;100143.33;1490454;93;21058;-81
2023/01/04 05:59:31;;;;;;;7.85;4.55;;;;;;;2.27;90.93;100135.16;1492208;93;21204;-81
2023/01/04 06:02:01;;;;;;;8.03;4.28;;;;;;;2.32;90.88;100148.84;1499659;93;21092;-82
2023/01/04 06:04:29;;;;;;;11.88;4.70;;;;;;;2.28;90.56;100139.44;1519828;92;21119;-82
2023/01/04 06:06:56;;;;;;;6.03;3.92;;;;;;;2.30;90.86;100135.14;1526332;91;21071;-82
2023/01/04 06:09:26;;;;;;;7.97;4.35;;;;;;;2.30;90.67;100127.41;1519885;92;21131;-82
2023/01/04 06:12:03;;;;;;;8.23;4.20;;;;;;;2.31;90.66;100125.24;1524236;92;21059;-82
2023/01/04 06:14:44;;;;;;;6.37;4.08;;;;;;;2.32;90.79;100107.62;1496411;93;21545;-82
2023/01/04 06:17:14;;;;;;;12.30;5.20;;;;;;;2.35;90.81;100102.47;1489982;94;21565;-82
2023/01/04 06:20:34;;;;;;;10.32;4.87;;;;;;;2.39;90.87;100088.67;1411378;98;21052;-81
2023/01/04 06:26:03;;;;;;;8.18;4.12;;;;;;;2.35;90.53;100076.70;1326818;105;21210;-80
2023/01/04 06:28:40;;;;;;;6.78;4.10;;;;;;;2.38;90.79;100077.96;1333355;103;21138;-82
2023/01/04 06:31:13;;;;;;;8.95;4.55;;;;;;;2.39;90.62;100074.50;1346173;104;21094;-81
2023/01/04 06:50:10;;;;;;;9.80;6.37;;;;;;;2.28;90.55;100044.11;1270087;111;21694;-81
2023/01/04 06:52:37;;;;;;;9.83;6.30;;;;;;;2.28;90.61;100033.80;1251629;112;21241;-81
2023/01/04 06:55:05;;;;;;;11.83;6.13;;;;;;;2.31;90.72;100033.77;1255517;112;21166;-81
2023/01/04 06:57:34;;;;;;;9.60;5.85;;;;;;;2.32;90.58;100027.73;1256626;112;21153;-88
2023/01/04 07:00:05;;;;;;;10.75;7.08;;;;;;;2.38;90.74;100022.55;1253301;113;21180;-81
2023/01/04 07:02:32;;;;;;;11.60;6.28;;;;;;;2.38;90.57;100025.12;1275947;110;21133;-81
2023/01/04 07:05:04;;;;;;;10.10;5.73;;;;;;;2.43;90.64;100031.07;1269394;111;21165;-81
2023/01/04 07:07:40;;;;;;;8.15;5.50;;;;;;;2.46;90.66;100018.19;1252533;112;21162;-80
2023/01/04 07:10:09;;;;;;;10.08;5.80;;;;;;;2.48;90.48;100025.03;1290659;108;21140;-81
2023/01/04 07:12:37;;;;;;;6.83;4.97;;;;;;;2.52;90.58;100016.39;1297319;107;21121;-80
2023/01/04 07:15:06;;;;;;;10.15;5.47;;;;;;;2.54;90.64;100010.35;1396999;98;21597;-80
2023/01/04 07:17:35;;;;;;;9.25;6.30;;;;;;;2.53;90.48;100008.66;1383767;101;21071;-80
2023/01/04 07:20:02;;;;;;;8.80;5.75;;;;;;;2.55;90.41;100003.47;1398994;99;21153;-80
2023/01/04 07:22:29;;;;;;;12.23;6.50;;;;;;;2.59;90.57;99998.72;1439932;95;21011;-80
2023/01/04 07:25:00;;;;;;;9.03;6.12;;;;;;;2.64;90.65;99984.06;1469349;95;21041;-81
2023/01/04 07:27:27;;;;;;;12.60;5.22;;;;;;;2.71;90.77;99983.55;1482363;95;21107;-81
2023/01/04 07:29:53;;;;;;;14.93;6.10;;;;;;;2.75;90.68;99980.93;1483858;95;21000;-80
2023/01/04 07:32:20;;;;;;;7.78;5.40;;;;;;;2.77;90.63;99974.01;1565096;88;21063;-80
2023/01/04 07:34:47;;;;;;;9.03;6.55;;;;;;;2.82;90.64;99968.81;1576036;88;21897;-80
2023/01/04 07:37:15;;;;;;;9.53;7.20;;;;;;;2.84;90.55;99957.60;1589801;87;21429;-80
2023/01/04 07:39:42;;;;;;;11.90;8.33;;;;;;;2.85;90.52;99959.30;1636815;85;21053;-81
2023/01/04 07:42:10;;;;;;;13.53;9.00;;;;;;;2.86;90.50;99957.16;1610434;86;21012;-80
2023/01/04 07:44:39;;;;;;;22.20;16.15;;;;;;;2.85;90.54;99950.27;1635734;86;20977;-80
2023/01/04 08:09:02;;;;;;;13.45;9.05;;;;;;;3.07;90.69;99881.65;1416692;98;21081;-80
2023/01/04 11:15:53;;;;;;;16.57;11.05;;;;;;;4.66;89.28;99325.88;1339169;102;21929;-87
2023/01/04 12:07:28;;;;;;;17.75;12.20;;;;;;;4.57;88.83;99129.20;1157814;121;21242;-86
2023/01/04 12:09:58;;;;;;;15.03;11.78;;;;;;;4.59;88.93;99124.80;1143295;123;22427;-87
2023/01/04 12:12:30;;;;;;;17.15;13.28;;;;;;;4.56;88.95;99102.92;1142853;124;21273;-85
2023/01/04 12:15:02;;;;;;;20.95;13.13;;;;;;;4.52;88.75;99092.30;1151768;121;21289;-85
2023/01/04 12:18:01;;;;;;;19.25;13.08;;;;;;;4.50;88.98;99087.63;1150296;122;21817;-85
2023/01/04 12:20:32;;;;;;;17.20;13.10;;;;;;;4.54;88.99;99078.89;1154073;122;21787;-84
2023/01/04 12:22:59;;;;;;;18.30;12.82;;;;;;;4.55;88.84;99070.22;1218725;114;21209;-83
2023/01/04 12:25:44;;;;;;;22.62;14.87;;;;;;;4.53;88.89;99060.38;1236675;113;21254;-83
2023/01/04 12:28:38;;;;;;;25.37;15.80;;;;;;;4.57;89.05;99045.63;1251896;111;21188;-83
2023/01/04 12:31:26;;;;;;;21.02;13.08;;;;;;;4.54;88.85;99037.52;1300735;107;21101;-84
2023/01/04 12:33:59;;;;;;;18.75;13.62;;;;;;;4.57;89.04;99031.41;1321540;105;21114;-84
2023/01/04 12:36:45;;;;;;;19.25;12.60;;;;;;;4.57;88.93;99012.85;1408338;98;21249;-83
2023/01/04 12:39:22;;;;;;;18.37;13.20;;;;;;;4.54;88.76;99001.33;1417945;99;21108;-85
2023/01/04 12:42:03;;;;;;;;;;;;;;;4.48;88.84;98995.05;1448703;93;21652;-85
2023/01/04 12:44:42;;;;;;;19.25;12.43;;;;;;;4.48;88.90;98983.41;1488381;94;20495;-85
2023/01/04 12:50:27;;;;;;;16.35;11.80;;;;;;;4.58;88.91;98964.56;1504797;94;21112;-84
2023/01/04 12:53:03;;;;;;;16.05;11.08;;;;;;;4.59;89.02;98933.47;1504426;93;21160;-85
2023/01/04 12:55:46;;;;;;;16.80;11.30;;;;;;;4.70;88.95;98936.97;1502710;92;21059;-85
2023/01/04 12:58:33;;;;;;;15.78;11.15;;;;;;;4.69;88.88;98921.91;1503630;93;21162;-85
2023/01/04 13:01:05;;;;;;;15.58;10.88;;;;;;;4.70;88.88;98915.86;1506019;93;21509;-85
2023/01/04 13:03:35;;;;;;;13.93;10.63;;;;;;;4.78;88.91;98922.48;1504255;92;21138;-84
2023/01/04 13:06:21;;;;;;;15.23;10.43;;;;;;;4.75;88.68;98897.57;1504715;92;21080;-84
2023/01/04 13:08:40;;;;;;;18.55;10.88;;;;;;;4.74;88.79;98897.64;1504202;92;21625;-85
2023/01/04 13:14:49;;;;;;;11.97;9.23;;;;;;;4.70;88.63;98884.83;1440428;95;21611;-84
2023/01/04 13:17:24;;;;;;;;;;;;;;;4.66;88.76;98865.14;1472211;93;21064;-85
2023/01/04 13:19:54;;;;;;;13.00;9.28;;;;;;;4.71;88.94;98864.98;1463004;96;20189;-85
2023/01/04 13:22:27;;;;;;;13.48;9.00;;;;;;;4.67;88.78;98860.34;1466071;95;21552;-84
2023/01/04 13:24:58;;;;;;;12.28;8.63;;;;;;;4.64;88.68;98847.53;1510492;91;20994;-84
2023/01/04 13:27:26;;;;;;;10.65;8.25;;;;;;;4.63;88.74;98845.86;1545412;91;21030;-84
2023/01/04 13:29:53;;;;;;;12.93;8.38;;;;;;;4.62;88.76;98840.31;1540119;91;21041;-84
2023/01/04 13:32:30;;;;;;;14.80;9.05;;;;;;;4.64;88.89;98824.27;1545723;91;21054;-84
2023/01/04 13:35:14;;;;;;;11.03;8.48;;;;;;;4.62;88.80;98827.37;1545257;91;21141;-84
2023/01/04 13:37:45;;;;;;;16.10;8.90;;;;;;;4.64;88.81;98824.72;1545852;91;21563;-84
2023/01/04 13:40:34;;;;;;;11.60;8.15;;;;;;;4.60;88.77;98809.78;1538741;91;21594;-83
2023/01/04 13:43:34;;;;;;;11.80;7.72;;;;;;;4.53;88.68;98812.19;1544994;91;21061;-84
2023/01/04 13:46:16;;;;;;;9.98;7.58;;;;;;;4.55;88.95;98802.64;1579202;89;21164;-85
2023/01/04 13:48:49;;;;;;;10.75;7.12;;;;;;;4.54;88.92;98778.99;1581769;89;21024;-84
2023/01/04 13:51:29;;;;;;;9.70;7.20;;;;;;;4.55;88.97;98775.49;1582436;89;21490;-85
2023/01/04 13:53:58;;;;;;;9.63;7.00;;;;;;;4.54;88.97;98772.53;1581415;88;21089;-85
2023/01/04 13:56:30;;;;;;;12.40;7.62;;;;;;;4.57;89.05;98767.24;1581998;89;21394;-84
2023/01/04 13:58:58;;;;;;;10.40;8.08;;;;;;;4.55;88.95;98757.40;1581745;89;21517;-84
2023/01/04 14:01:30;;;;;;;11.25;7.20;;;;;;;4.56;89.04;98751.77;1564362;89;62977;-85
2023/01/04 14:04:00;;;;;;;9.40;6.65;;;;;;;4.56;88.98;98744.85;1541787;92;21066;-84
2023/01/04 14:06:49;;;;;;;10.60;6.33;;;;;;;4.54;88.92;98731.17;1533190;91;21661;-84
2023/01/04 14:09:29;;;;;;;8.53;5.83;;;;;;;4.54;89.10;98741.51;1521017;90;21566;-84
2023/01/04 14:12:02;;;;;;;8.70;5.60;;;;;;;4.51;89.02;98729.99;1558878;89;21569;-84
2023/01/04 14:15:07;;;;;;;9.03;6.40;;;;;;;4.51;89.12;98722.66;1559621;89;21079;-84
2023/01/04 14:17:52;;;;;;;7.62;6.00;;;;;;;4.52;89.19;98712.28;1575137;88;21038;-84
2023/01/04 14:20:24;;;;;;;7.10;5.17;;;;;;;4.50;89.13;98711.48;1597617;88;21035;-84
2023/01/04 14:22:55;;;;;;;7.78;5.33;;;;;;;4.53;89.29;98694.56;1599828;88;21065;-84
2023/01/04 14:25:36;;;;;;;6.30;4.60;;;;;;;4.55;89.37;98682.88;1598837;87;20990;-84
2023/01/04 14:28:31;;;;;;;6.50;5.42;;;;;;;4.58;89.42;98672.42;1600204;88;21095;-84
2023/01/04 14:31:05;;;;;;;7.97;4.60;;;;;;;4.60;89.46;98654.66;1578622;88;21005;-84
2023/01/04 14:33:40;;;;;;;6.17;4.95;;;;;;;4.65;89.50;98651.44;1604010;88;21088;-84
2023/01/04 14:39:26;;;;;;;5.85;4.85;;;;;;;4.67;89.47;98635.39;1595025;88;21525;-84
2023/01/04 14:41:56;;;;;;;5.85;4.85;;;;;;;4.66;89.48;98624.67;1598659;88;21024;-84
2023/01/04 14:44:27;;;;;;;9.13;5.05;;;;;;;4.68;89.65;98622.88;1584895;88;20962;-84
2023/01/04 14:47:00;;;;;;;7.45;5.40;;;;;;;4.71;89.66;98626.62;1598522;88;20996;-84
2023/01/04 14:49:27;;;;;;;6.17;4.92;;;;;;;4.75;89.67;98604.51;1600579;88;21034;-84
2023/01/04 14:51:59;;;;;;;6.53;4.47;;;;;;;4.78;89.75;98601.80;1600469;88;21025;-84
2023/01/04 14:54:28;;;;;;;5.45;4.40;;;;;;;4.79;89.69;98604.75;1597698;88;20972;-84
2023/01/04 14:56:58;;;;;;;5.75;3.83;;;;;;;4.80;89.65;98598.70;1597598;88;21582;-85
2023/01/04 14:59:25;;;;;;;7.22;5.03;;;;;;;4.81;89.80;98593.45;1588835;88;21095;-84
2023/01/04 15:01:56;;;;;;;6.33;4.60;;;;;;;4.82;89.83;98595.61;1601594;86;2008448;-84
2023/01/04 15:04:23;;;;;;;7.72;4.42;;;;;;;4.85;89.77;98590.30;1641568;86;21069;-84
2023/01/04 15:06:54;;;;;;;7.87;5.22;;;;;;;4.84;89.83;98578.26;1648595;86;21096;-85
2023/01/04 15:09:21;;;;;;;6.40;4.90;;;;;;;4.87;89.90;98570.36;1649575;86;21100;-84
2023/01/04 15:11:47;;;;;;;5.50;4.53;;;;;;;4.88;89.81;98572.06;1645446;86;21035;-84
2023/01/04 15:14:14;;;;;;;5.62;4.37;;;;;;;4.84;89.80;98558.40;1648360;86;21080;-85
2023/01/04 15:16:42;;;;;;;5.50;3.87;;;;;;;4.88;90.02;98547.50;1640395;84;20986;-84
2023/01/04 15:19:14;;;;;;;5.58;3.50;;;;;;;4.89;90.00;98555.63;1597682;88;21646;-85
2023/01/04 15:21:43;;;;;;;5.17;4.35;;;;;;;4.91;90.06;98543.48;1570383;89;21037;-85
2023/01/04 15:24:13;;;;;;;4.97;3.52;;;;;;;4.93;90.27;98540.38;1580986;89;21042;-84
2023/01/04 15:26:43;;;;;;;4.65;3.75;;;;;;;4.98;90.28;98524.19;1583456;88;21072;-83
2023/01/04 15:29:08;;;;;;;6.17;3.83;;;;;;;4.99;90.21;98520.70;1633186;86;20996;-83
2023/01/04 15:31:37;;;;;;;5.00;3.67;;;;;;;5.01;90.22;98520.16;1630031;86;20993;-85
2023/01/04 15:34:05;;;;;;;5.22;2.95;;;;;;;5.07;90.51;98521.64;1632531;86;21065;-85
2023/01/04 15:36:37;;;;;;;4.75;3.58;;;;;;;5.10;90.49;98509.89;1633708;86;21037;-85
2023/01/04 15:39:02;;;;;;;6.70;3.67;;;;;;;5.17;90.66;98500.94;1636996;86;21012;-85
2023/01/04 15:44:15;;;;;;;5.42;3.37;;;;;;;5.23;90.64;98489.47;1636934;86;21085;-85
2023/01/04 15:46:45;;;;;;;4.67;3.45;;;;;;;5.26;90.53;98469.91;1633534;86;21045;-85
2023/01/04 15:49:10;;;;;;;4.72;3.30;;;;;;;5.26;90.67;98474.63;1637502;86;21010;-86
2023/01/04 15:51:37;;;;;;;3.85;3.02;;;;;;;5.30;90.63;98472.77;1632561;86;21046;-85
2023/01/04 15:54:07;;;;;;;4.33;2.90;;;;;;;5.31;90.79;98443.38;1634872;86;21577;-85
2023/01/04 15:56:34;;;;;;;2.90;2.58;;;;;;;5.35;90.84;98450.10;1626204;85;21025;-83
2023/01/04 15:59:00;;;;;;;4.90;2.62;;;;;;;5.35;90.71;98451.40;1640574;85;20996;-85
2023/01/04 16:01:27;;;;;;;3.13;2.07;;;;;;;5.36;90.86;98446.13;1593198;86;1995669;-86
2023/01/04 16:03:55;;;;;;;6.28;3.27;;;;;;;5.42;91.06;98435.95;1595108;87;21020;-84
2023/01/04 16:06:25;;;;;;;4.95;2.40;;;;;;;5.47;91.12;98423.63;1586926;88;21092;-85
2023/01/04 16:08:58;;;;;;;2.75;2.12;;;;;;;5.50;91.13;98418.30;1583598;88;21576;-85
2023/01/04 16:11:28;;;;;;;4.47;2.75;;;;;;;5.58;91.34;98412.31;1592538;87;22231;-83
2023/01/04 16:13:54;;;;;;;3.52;2.02;;;;;;;5.67;91.41;98406.31;1594170;88;21002;-82
2023/01/04 16:16:26;;;;;;;4.37;2.37;;;;;;;5.72;91.35;98405.64;1594403;88;21017;-85
2023/01/04 16:19:03;;;;;;;6.92;4.10;;;;;;;5.71;91.14;98379.34;1608731;87;21527;-83
2023/01/04 16:21:39;;;;;;;4.33;3.27;;;;;;;5.72;91.29;98390.09;1604473;88;21035;-85
2023/01/04 16:24:01;;;;;;;6.25;3.72;;;;;;;5.71;91.18;98389.70;1611521;87;21526;-85
2023/01/04 16:26:31;;;;;;;7.00;3.85;;;;;;;5.71;91.27;98384.52;1606602;87;20997;-88
2023/01/04 16:28:59;;;;;;;4.92;3.27;;;;;;;5.70;91.27;98377.67;1596605;87;21115;-86
2023/01/04 16:31:26;;;;;;;5.60;3.30;;;;;;;5.72;91.32;98374.56;1604259;87;20992;-85
2023/01/04 16:33:53;;;;;;;3.63;2.27;;;;;;;5.72;91.31;98366.79;1586980;88;21707;-85
2023/01/04 16:36:21;;;;;;;4.22;2.80;;;;;;;5.68;91.25;98363.95;1608060;87;21017;-83
2023/01/04 16:38:50;;;;;;;5.87;2.58;;;;;;;5.69;91.37;98363.06;1605249;87;21081;-84
2023/01/04 16:41:23;;;;;;;3.50;2.37;;;;;;;5.70;91.48;98359.55;1605653;87;21602;-85
2023/01/04 16:43:57;;;;;;;3.05;1.98;;;;;;;5.74;91.51;98361.05;1585964;88;21577;-84
2023/01/04 16:46:33;;;;;;;2.40;1.75;;;;;;;5.76;91.57;98347.58;1604473;87;21069;-84
2023/01/04 16:49:08;;;;;;;2.47;1.80;;;;;;;5.78;91.58;98352.23;1605653;88;21003;-83
2023/01/04 16:51:43;;;;;;;3.70;2.62;;;;;;;5.80;91.69;98343.48;1605050;87;21027;-84
2023/01/04 16:54:11;;;;;;;2.98;1.90;;;;;;;5.86;91.92;98341.04;1605943;87;21076;-84
2023/01/04 16:56:45;;;;;;;2.70;1.50;;;;;;;5.94;92.04;98337.64;1605930;87;21018;-86
2023/01/04 16:59:17;;;;;;;3.62;1.37;;;;;;;5.95;91.80;98344.48;1605342;87;20987;-83
2023/01/04 17:01:47;;;;;;;3.75;1.50;;;;;;;5.96;91.91;98337.55;1606959;87;21157;-85
2023/01/04 17:04:13;;;;;;;2.92;1.60;;;;;;;5.97;92.00;98332.30;1605590;87;21024;-85
2023/01/04 17:06:44;;;;;;;1.83;1.40;;;;;;;6.01;91.98;98326.03;1605934;88;21024;-84
2023/01/04 17:09:21;;;;;;;3.17;2.40;;;;;;;6.03;92.11;98319.03;1606281;88;22036;-84
2023/01/04 17:12:01;;;;;;;5.08;2.90;;;;;;;6.09;92.33;98319.64;1605311;88;20997;-84
2023/01/04 17:14:21;;;;;;;6.35;2.85;;;;;;;6.14;92.28;98313.30;1600329;88;21068;-85
2023/01/04 17:16:51;;;;;;;2.42;1.60;;;;;;;6.17;92.34;98304.53;1605457;86;21040;-83
2023/01/04 17:19:18;;;;;;;3.55;1.37;;;;;;;6.22;92.39;98292.17;1588853;89;21035;-83
2023/01/04 17:21:48;;;;;;;3.62;1.87;;;;;;;6.27;92.39;98295.34;1592840;88;21049;-83
2023/01/04 17:24:15;;;;;;;1.40;1.00;;;;;;;6.29;92.40;98290.92;1589805;89;21625;-84
2023/01/04 17:26:49;;;;;;;2.67;1.50;;;;;;;6.31;92.33;98286.50;1592586;88;21041;-83
2023/01/04 17:29:15;;;;;;;1.75;1.40;;;;;;;6.32;92.45;98277.80;1592898;89;21043;-84
2023/01/04 17:31:44;;;;;;;2.25;1.85;;;;;;;6.35;92.42;98269.02;1590727;88;21011;-83
2023/01/04 17:34:16;;;;;;;4.70;1.70;;;;;;;6.35;92.54;98277.63;1589889;88;21879;-83
2023/01/04 17:36:44;;;;;;;2.40;1.57;;;;;;;6.35;92.50;98265.96;1584928;88;20976;-83
2023/01/04 17:39:11;;;;;;;3.62;1.60;;;;;;;6.36;92.53;98266.36;1592309;88;21011;-83
2023/01/04 17:41:39;;;;;;;2.98;1.52;;;;;;;6.34;92.50;98257.82;1585654;88;20978;-84
2023/01/04 17:44:06;;;;;;;2.33;1.67;;;;;;;6.36;92.65;98254.69;1591240;88;21028;-84
2023/01/04 17:46:36;;;;;;;2.53;1.60;;;;;;;6.36;92.72;98246.91;1591778;88;20991;-84
2023/01/04 17:49:06;;;;;;;3.67;2.30;;;;;;;6.42;92.86;98240.09;1587862;88;20976;-83
2023/01/04 17:51:33;;;;;;;4.10;1.80;;;;;;;6.47;92.98;98251.06;1593974;88;20970;-83
2023/01/04 17:54:03;;;;;;;2.10;1.35;;;;;;;6.56;92.88;98246.30;1593724;88;21002;-84
2023/01/04 17:56:40;;;;;;;2.42;1.72;;;;;;;6.55;92.92;98231.64;1592391;88;21023;-82
2023/01/04 17:59:10;;;;;;;3.70;2.00;;;;;;;6.58;93.07;98222.39;1591155;88;21526;-83
2023/01/04 18:01:37;;;;;;;4.67;2.72;;;;;;;6.63;93.01;98225.58;1591789;88;21045;-85
2023/01/04 18:04:04;;;;;;;2.55;1.40;;;;;;;6.66;93.05;98205.48;1591326;88;21021;-83
2023/01/04 18:06:34;;;;;;;2.80;1.77;;;;;;;6.68;93.10;98213.20;1591424;88;21143;-83
2023/01/04 18:09:03;;;;;;;1.82;1.25;;;;;;;6.69;93.22;98210.97;1592297;87;21756;-84
2023/01/04 18:11:35;;;;;;;1.62;1.20;;;;;;;6.75;93.32;98205.91;1576040;89;21112;-83
2023/01/04 18:14:02;;;;;;;3.17;1.30;;;;;;;6.80;93.34;98198.23;1592888;88;21015;-84
2023/01/04 18:16:28;;;;;;;3.15;1.40;;;;;;;6.87;93.48;98193.09;1590451;88;21136;-83
2023/01/04 18:19:11;;;;;;;3.30;1.77;;;;;;;6.88;93.42;98190.86;1590817;88;21553;-83
2023/01/04 18:21:38;;;;;;;3.50;2.20;;;;;;;6.92;93.57;98183.76;1590925;88;21764;-83
2023/01/04 18:24:07;;;;;;;5.42;2.05;;;;;;;6.94;93.42;98184.02;1589388;88;21632;-83
2023/01/04 18:26:34;;;;;;;4.25;1.42;;;;;;;6.94;93.46;98176.70;1589185;89;21507;-83
2023/01/04 18:29:04;;;;;;;2.47;1.30;;;;;;;6.98;93.42;98177.39;1588771;89;21009;-84
2023/01/04 18:31:37;;;;;;;3.02;1.40;;;;;;;6.98;93.55;98173.49;1590621;88;21002;-83
2023/01/04 18:34:08;;;;;;;3.60;2.37;;;;;;;7.02;93.64;98162.00;1590902;88;21680;-83
2023/01/04 18:36:41;;;;;;;1.27;0.80;;;;;;;7.08;93.85;98159.05;1587642;88;21041;-83
2023/01/04 18:39:10;;;;;;;1.50;1.10;;;;;;;7.12;93.86;98151.47;1591135;88;21003;-84